Terminal Aerodrome Forecast
Issued by NWS Charleston, WV

Home | Current Version | Previous Version | Text Only | Print | Product List | Glossary On
Versions: 1 2 3 4 5 6 7 8 9 10 11 12 13 14 15 16 17 18 19 20 21 22 23 24 25 26 27 28 29 30 31 32 33
000
FTUS41 KRLX 212300 RRA
TAFBKW
TAF
KBKW 212348Z 2200/2224 31006KT 6SM -SHRA BR OVC015
      TEMPO 2200/2204 2SM -SHRA BR SCT004 BKN008
     FM220400 32005KT P6SM -SHRA OVC010
      TEMPO 2204/2208 3SM -SHRA BR SCT004 BKN008
     FM221000 32005KT P6SM OVC010
     FM221500 32009KT P6SM OVC012=

USA.gov is the U.S. government's official web portal to all federal, state and local government web resources and services.